Wittman Regional Airport
KOSH : now visible

Airfield :











YOU CAN JOIN US ON...

 
LOGIN :

Register | Disclaimer

   EN    FR    IT 

 









Legend :    VFR   Marginal VFR   IFR   Intensive IFR   Very Intensive IFR
Visi :
Ceiling :
>= 8 km
>= 3000ft
5 to 8 km
1000 to 3000 ft
1500m to 5 km
500 to 1000 ft
800 to 1500m
200 to 500 ft
< 800m
< 200 ft
Symbols :   Thunderstorms  Fog  Heavy snow  Heavy precipitations  Wind > 20 kt







- Airport Elevation : 808 ft
- IATA code : OSH


KOSH - Wittman Regional

CURRENT METAR :
  • 200953Z AUTO 00000KT 1/4SM R36/0700V1400FT FG VV002 17/16 A3010 RMK AO2 SLP184 T01670161

EXPIRED METARs :
  • 200911Z AUTO 00000KT 1/4SM R36/1000V1600FT FG VV002 16/16 A3010 RMK AO2 T01610156
  • 200901Z AUTO 00000KT 1/4SM R36/1400V2400FT FG VV002 17/17 A3009 RMK AO2 T01670167
  • 200853Z AUTO 00000KT 1/4SM R36/1200V2000FT FG VV002 17/16 A3009 RMK AO2 SLP181 T01670161 51006
  • 200834Z AUTO 13003KT 1/4SM R36/1400V2000FT FG VV003 17/16 A3009 RMK AO2 T01670161
  • 200826Z AUTO 00000KT 1/4SM R36/1800V5000FT FG VV003 16/16 A3009 RMK AO2 T01610161
  • 200820Z AUTO 10003KT 1SM R36/1800VP6000FT BR VV003 16/16 A3010 RMK AO2 T01610161
  • 200807Z AUTO 00000KT 2SM BR FEW003 16/16 A3009 RMK AO2 T01560156
  • 200753Z AUTO 00000KT 3/4SM R36/1800VP6000FT BR VV003 17/16 A3009 RMK AO2 SLP181 T01670161
  • 200735Z AUTO 00000KT 3/4SM R36/4000VP6000FT BR VV002 17/16 A3009 RMK AO2 VIS 1/2V2 1/2 T01670161
  • 200731Z AUTO 00000KT 1 1/4SM R36/4000VP6000FT BR CLR 17/16 A3009 RMK AO2 VIS 3/4V2 1/2 T01720161
  • 200711Z AUTO 00000KT 1 3/4SM BR CLR 18/17 A3009 RMK AO2 T01780172

Expired Forecast.
No reported NOTAMs for that airfield.



MET'MAP, your aeronautical weather chart ! - Copyright ORBIFLY December 2007 - Disclaimer

ORBIFLY MET'MAP TEAM :

Programming & Development : Alexandra Zaïnal
Concept & Development : Baudouin d'Aumeries
Co-Development & Prog : Marc-Olivier Méhu
Technical & hardware support : Manuel Goepfert

Contact : metmap@orbifly.com




SOURCES & CREDITS :

   NOAA       Earth
Advisory